sensor_id;sensor_type;location;lat;lon;timestamp;pressure;altitude;pressure_sealevel;temperature;humidity
64886;BME280;51514;52.206;5.114;2023-03-20T00:01:10;101992.44;;;9.77;88.48
64886;BME280;51514;52.206;5.114;2023-03-20T00:03:36;101998.69;;;9.78;88.59
64886;BME280;51514;52.206;5.114;2023-03-20T00:06:01;102002.34;;;9.77;88.27
64886;BME280;51514;52.206;5.114;2023-03-20T00:08:27;101995.00;;;9.79;88.24
64886;BME280;51514;52.206;5.114;2023-03-20T00:10:52;101988.88;;;9.77;87.21
64886;BME280;51514;52.206;5.114;2023-03-20T00:13:24;101986.19;;;9.77;86.57
64886;BME280;51514;52.206;5.114;2023-03-20T00:15:52;101980.69;;;9.78;86.61
64886;BME280;51514;52.206;5.114;2023-03-20T00:18:20;101984.09;;;9.80;86.51
64886;BME280;51514;52.206;5.114;2023-03-20T00:20:48;101976.63;;;9.84;86.06
64886;BME280;51514;52.206;5.114;2023-03-20T00:23:14;101975.50;;;9.86;85.63
64886;BME280;51514;52.206;5.114;2023-03-20T00:25:42;101975.25;;;9.89;84.73
64886;BME280;51514;52.206;5.114;2023-03-20T00:28:34;101974.16;;;9.92;84.00
64886;BME280;51514;52.206;5.114;2023-03-20T00:31:02;101981.50;;;9.90;83.65
64886;BME280;51514;52.206;5.114;2023-03-20T00:33:28;101981.50;;;9.90;83.52
64886;BME280;51514;52.206;5.114;2023-03-20T00:35:55;101974.16;;;9.92;83.28
64886;BME280;51514;52.206;5.114;2023-03-20T00:38:23;101994.34;;;9.98;83.17
64886;BME280;51514;52.206;5.114;2023-03-20T00:40:48;101996.06;;;9.99;82.61
64886;BME280;51514;52.206;5.114;2023-03-20T00:43:13;101998.88;;;9.97;81.96
64886;BME280;51514;52.206;5.114;2023-03-20T00:45:40;102006.38;;;9.94;81.97
64886;BME280;51514;52.206;5.114;2023-03-20T00:48:09;102020.69;;;9.94;81.16
64886;BME280;51514;52.206;5.114;2023-03-20T00:50:37;102026.22;;;9.93;81.10
64886;BME280;51514;52.206;5.114;2023-03-20T00:53:02;102028.91;;;9.93;80.74
64886;BME280;51514;52.206;5.114;2023-03-20T00:55:28;102026.69;;;9.86;80.22
64886;BME280;51514;52.206;5.114;2023-03-20T00:58:01;102035.03;;;9.83;80.20
64886;BME280;51514;52.206;5.114;2023-03-20T01:00:41;102022.28;;;9.85;80.70
64886;BME280;51514;52.206;5.114;2023-03-20T01:03:16;102010.53;;;9.86;80.44
64886;BME280;51514;52.206;5.114;2023-03-20T01:05:42;102006.50;;;9.92;80.72
64886;BME280;51514;52.206;5.114;2023-03-20T01:08:23;102011.25;;;9.88;80.27
64886;BME280;51514;52.206;5.114;2023-03-20T01:10:52;102015.78;;;9.88;80.84
64886;BME280;51514;52.206;5.114;2023-03-20T01:13:25;102017.38;;;9.91;81.15
64886;BME280;51514;52.206;5.114;2023-03-20T01:15:52;102018.13;;;9.93;80.86
64886;BME280;51514;52.206;5.114;2023-03-20T01:18:20;102019.34;;;9.88;81.31
64886;BME280;51514;52.206;5.114;2023-03-20T01:20:47;102018.59;;;9.86;81.45
64886;BME280;51514;52.206;5.114;2023-03-20T01:23:13;102021.31;;;9.86;81.70
64886;BME280;51514;52.206;5.114;2023-03-20T01:25:39;102010.06;;;9.81;81.86
64886;BME280;51514;52.206;5.114;2023-03-20T01:28:18;102022.78;;;9.79;82.13
64886;BME280;51514;52.206;5.114;2023-03-20T01:30:45;102023.66;;;9.80;82.12
64886;BME280;51514;52.206;5.114;2023-03-20T01:33:16;102030.03;;;9.79;82.29
64886;BME280;51514;52.206;5.114;2023-03-20T01:35:42;102033.56;;;9.79;82.37
64886;BME280;51514;52.206;5.114;2023-03-20T01:38:23;102011.28;;;9.77;81.99
64886;BME280;51514;52.206;5.114;2023-03-20T01:40:58;101996.97;;;9.77;82.02
64886;BME280;51514;52.206;5.114;2023-03-20T01:43:26;102007.72;;;9.77;82.04
64886;BME280;51514;52.206;5.114;2023-03-20T01:51:27;102023.16;;;9.64;82.66
64886;BME280;51514;52.206;5.114;2023-03-20T01:54:00;102027.69;;;9.63;82.60
64886;BME280;51514;52.206;5.114;2023-03-20T01:56:29;102027.69;;;9.63;82.75
64886;BME280;51514;52.206;5.114;2023-03-20T01:59:07;102024.03;;;9.64;82.98
64886;BME280;51514;52.206;5.114;2023-03-20T02:01:35;102028.81;;;9.61;82.89
64886;BME280;51514;52.206;5.114;2023-03-20T02:04:01;102026.13;;;9.61;83.03
64886;BME280;51514;52.206;5.114;2023-03-20T02:06:27;102029.69;;;9.61;82.90
64886;BME280;51514;52.206;5.114;2023-03-20T02:08:53;102019.78;;;9.62;83.16
64886;BME280;51514;52.206;5.114;2023-03-20T02:11:20;102002.13;;;9.58;83.05
64886;BME280;51514;52.206;5.114;2023-03-20T02:13:50;102003.22;;;9.55;83.59
64886;BME280;51514;52.206;5.114;2023-03-20T02:16:17;101989.03;;;9.53;83.32
64886;BME280;51514;52.206;5.114;2023-03-20T02:18:46;101991.13;;;9.49;83.60
64886;BME280;51514;52.206;5.114;2023-03-20T02:34:53;101982.69;;;9.21;84.27
64886;BME280;51514;52.206;5.114;2023-03-20T02:38:23;101985.75;;;9.16;83.40
64886;BME280;51514;52.206;5.114;2023-03-20T02:40:32;101981.47;;;9.13;83.67
64886;BME280;51514;52.206;5.114;2023-03-20T02:45:47;101963.38;;;9.15;82.96
64886;BME280;51514;52.206;5.114;2023-03-20T02:51:06;101937.69;;;9.11;82.91
64886;BME280;51514;52.206;5.114;2023-03-20T02:53:42;101919.13;;;9.08;83.27
64886;BME280;51514;52.206;5.114;2023-03-20T02:58:49;101917.41;;;9.07;82.33
64886;BME280;51514;52.206;5.114;2023-03-20T03:01:50;101927.03;;;8.99;82.39
64886;BME280;51514;52.206;5.114;2023-03-20T03:04:21;101932.28;;;8.89;82.43
64886;BME280;51514;52.206;5.114;2023-03-20T03:06:49;101934.50;;;8.84;83.05
64886;BME280;51514;52.206;5.114;2023-03-20T03:09:22;101938.06;;;8.85;82.95
64886;BME280;51514;52.206;5.114;2023-03-20T03:11:55;101941.09;;;8.80;83.52
64886;BME280;51514;52.206;5.114;2023-03-20T03:14:42;101940.72;;;8.73;83.54
64886;BME280;51514;52.206;5.114;2023-03-20T03:17:11;101945.47;;;8.70;83.10
64886;BME280;51514;52.206;5.114;2023-03-20T03:19:41;101952.56;;;8.71;83.68
64886;BME280;51514;52.206;5.114;2023-03-20T03:22:08;101940.84;;;8.72;83.52
64886;BME280;51514;52.206;5.114;2023-03-20T03:24:36;101940.34;;;8.67;83.67
64886;BME280;51514;52.206;5.114;2023-03-20T03:27:20;101948.66;;;8.64;83.56
64886;BME280;51514;52.206;5.114;2023-03-20T03:29:52;101944.59;;;8.58;83.27
64886;BME280;51514;52.206;5.114;2023-03-20T03:32:25;101933.72;;;8.60;83.43
64886;BME280;51514;52.206;5.114;2023-03-20T03:34:52;101923.94;;;8.59;83.77
64886;BME280;51514;52.206;5.114;2023-03-20T03:37:37;101918.34;;;8.62;83.89
64886;BME280;51514;52.206;5.114;2023-03-20T03:43:06;101914.16;;;8.58;83.51
64886;BME280;51514;52.206;5.114;2023-03-20T03:45:41;101901.69;;;8.57;84.37
64886;BME280;51514;52.206;5.114;2023-03-20T03:48:13;101904.16;;;8.60;83.66
64886;BME280;51514;52.206;5.114;2023-03-20T03:50:44;101900.72;;;8.58;84.43
64886;BME280;51514;52.206;5.114;2023-03-20T03:53:14;101897.19;;;8.57;83.38
64886;BME280;51514;52.206;5.114;2023-03-20T03:55:59;101900.00;;;8.56;83.90
64886;BME280;51514;52.206;5.114;2023-03-20T03:58:38;101893.16;;;8.52;84.38
64886;BME280;51514;52.206;5.114;2023-03-20T04:01:05;101897.28;;;8.45;84.38
64886;BME280;51514;52.206;5.114;2023-03-20T04:03:35;101894.59;;;8.45;84.34
64886;BME280;51514;52.206;5.114;2023-03-20T04:06:03;101889.22;;;8.45;85.05
64886;BME280;51514;52.206;5.114;2023-03-20T04:08:30;101880.19;;;8.46;84.53
64886;BME280;51514;52.206;5.114;2023-03-20T04:10:56;101882.88;;;8.46;84.58
64886;BME280;51514;52.206;5.114;2023-03-20T04:13:21;101890.22;;;8.44;84.76
64886;BME280;51514;52.206;5.114;2023-03-20T04:15:46;101895.72;;;8.42;84.86
64886;BME280;51514;52.206;5.114;2023-03-20T04:18:14;101900.34;;;8.40;84.88
64886;BME280;51514;52.206;5.114;2023-03-20T04:20:42;101898.75;;;8.37;85.36
64886;BME280;51514;52.206;5.114;2023-03-20T04:23:07;101897.78;;;8.38;85.19
64886;BME280;51514;52.206;5.114;2023-03-20T04:25:33;101903.88;;;8.40;85.14
64886;BME280;51514;52.206;5.114;2023-03-20T04:27:58;101911.84;;;8.42;85.53
64886;BME280;51514;52.206;5.114;2023-03-20T04:30:24;101902.06;;;8.41;85.11
64886;BME280;51514;52.206;5.114;2023-03-20T04:32:49;101905.59;;;8.41;84.87
64886;BME280;51514;52.206;5.114;2023-03-20T04:35:14;101902.66;;;8.45;84.74
64886;BME280;51514;52.206;5.114;2023-03-20T04:37:40;101902.91;;;8.41;85.07
64886;BME280;51514;52.206;5.114;2023-03-20T04:40:05;101892.16;;;8.41;84.75
64886;BME280;51514;52.206;5.114;2023-03-20T04:42:32;101887.75;;;8.40;85.70
64886;BME280;51514;52.206;5.114;2023-03-20T04:44:57;101892.66;;;8.47;85.53
64886;BME280;51514;52.206;5.114;2023-03-20T04:47:22;101888.34;;;8.44;85.13
64886;BME280;51514;52.206;5.114;2023-03-20T04:49:48;101884.59;;;8.47;84.86
64886;BME280;51514;52.206;5.114;2023-03-20T04:52:13;101889.38;;;8.43;85.36
64886;BME280;51514;52.206;5.114;2023-03-20T04:54:38;101886.91;;;8.40;85.25
64886;BME280;51514;52.206;5.114;2023-03-20T04:57:04;101896.06;;;8.37;85.15
64886;BME280;51514;52.206;5.114;2023-03-20T04:59:29;101883.59;;;8.36;85.32
64886;BME280;51514;52.206;5.114;2023-03-20T05:01:55;101875.31;;;8.39;85.33
64886;BME280;51514;52.206;5.114;2023-03-20T05:04:20;101874.31;;;8.40;85.54
64886;BME280;51514;52.206;5.114;2023-03-20T05:06:46;101876.03;;;8.41;85.14
64886;BME280;51514;52.206;5.114;2023-03-20T05:09:13;101877.13;;;8.39;85.09
64886;BME280;51514;52.206;5.114;2023-03-20T05:11:40;101880.28;;;8.33;85.80
64886;BME280;51514;52.206;5.114;2023-03-20T05:14:05;101873.06;;;8.33;85.29
64886;BME280;51514;52.206;5.114;2023-03-20T05:16:31;101875.13;;;8.30;86.02
64886;BME280;51514;52.206;5.114;2023-03-20T05:18:56;101872.56;;;8.28;86.01
64886;BME280;51514;52.206;5.114;2023-03-20T05:21:22;101877.72;;;8.31;86.10
64886;BME280;51514;52.206;5.114;2023-03-20T05:23:47;101878.66;;;8.30;86.19
64886;BME280;51514;52.206;5.114;2023-03-20T05:26:12;101876.09;;;8.29;85.81
64886;BME280;51514;52.206;5.114;2023-03-20T05:28:38;101876.97;;;8.29;86.10
64886;BME280;51514;52.206;5.114;2023-03-20T05:31:03;101880.41;;;8.31;85.64
64886;BME280;51514;52.206;5.114;2023-03-20T05:33:28;101886.00;;;8.28;86.33
64886;BME280;51514;52.206;5.114;2023-03-20T05:35:54;101895.56;;;8.32;86.11
64886;BME280;51514;52.206;5.114;2023-03-20T05:38:20;101899.22;;;8.31;86.03
64886;BME280;51514;52.206;5.114;2023-03-20T05:40:50;101896.28;;;8.34;86.31
64886;BME280;51514;52.206;5.114;2023-03-20T05:43:19;101901.66;;;8.34;86.02
64886;BME280;51514;52.206;5.114;2023-03-20T05:45:45;101898.34;;;8.31;86.43
64886;BME280;51514;52.206;5.114;2023-03-20T05:48:10;101902.00;;;8.30;86.64
64886;BME280;51514;52.206;5.114;2023-03-20T05:50:35;101895.66;;;8.31;86.71
64886;BME280;51514;52.206;5.114;2023-03-20T05:53:01;101895.03;;;8.27;87.05
64886;BME280;51514;52.206;5.114;2023-03-20T05:55:26;101892.44;;;8.26;87.60
64886;BME280;51514;52.206;5.114;2023-03-20T05:57:52;101897.81;;;8.26;88.04
64886;BME280;51514;52.206;5.114;2023-03-20T06:00:17;101896.09;;;8.25;87.61
64886;BME280;51514;52.206;5.114;2023-03-20T06:02:43;101899.44;;;8.28;87.60
64886;BME280;51514;52.206;5.114;2023-03-20T06:05:08;101897.72;;;8.27;87.48
64886;BME280;51514;52.206;5.114;2023-03-20T06:07:34;101891.59;;;8.25;87.20
64886;BME280;51514;52.206;5.114;2023-03-20T06:09:59;101892.56;;;8.24;87.78
64886;BME280;51514;52.206;5.114;2023-03-20T06:12:24;101890.13;;;8.21;88.11
64886;BME280;51514;52.206;5.114;2023-03-20T06:14:50;101896.22;;;8.23;88.05
64886;BME280;51514;52.206;5.114;2023-03-20T06:17:15;101902.56;;;8.22;87.55
64886;BME280;51514;52.206;5.114;2023-03-20T06:19:40;101906.25;;;8.21;88.70
64886;BME280;51514;52.206;5.114;2023-03-20T06:22:06;101901.75;;;8.22;88.35
64886;BME280;51514;52.206;5.114;2023-03-20T06:24:31;101905.41;;;8.21;88.80
64886;BME280;51514;52.206;5.114;2023-03-20T06:26:57;101910.13;;;8.17;89.21
64886;BME280;51514;52.206;5.114;2023-03-20T06:29:22;101914.31;;;8.21;88.64
64886;BME280;51514;52.206;5.114;2023-03-20T06:31:48;101912.81;;;8.17;88.73
64886;BME280;51514;52.206;5.114;2023-03-20T06:34:13;101911.00;;;8.18;88.61
64886;BME280;51514;52.206;5.114;2023-03-20T06:36:39;101916.25;;;8.19;89.18
64886;BME280;51514;52.206;5.114;2023-03-20T06:39:04;101917.22;;;8.18;88.45
64886;BME280;51514;52.206;5.114;2023-03-20T06:41:29;101915.41;;;8.19;88.89
64886;BME280;51514;52.206;5.114;2023-03-20T06:43:55;101911.75;;;8.20;88.70
64886;BME280;51514;52.206;5.114;2023-03-20T06:46:20;101913.19;;;8.24;88.38
64886;BME280;51514;52.206;5.114;2023-03-20T06:48:46;101912.59;;;8.20;88.55
64886;BME280;51514;52.206;5.114;2023-03-20T06:51:12;101916.00;;;8.22;88.62
64886;BME280;51514;52.206;5.114;2023-03-20T06:53:38;101924.06;;;8.22;88.65
64886;BME280;51514;52.206;5.114;2023-03-20T06:56:06;101917.84;;;8.22;88.21
64886;BME280;51514;52.206;5.114;2023-03-20T06:58:32;101917.22;;;8.18;89.28
64886;BME280;51514;52.206;5.114;2023-03-20T07:00:57;101921.38;;;8.22;88.77
64886;BME280;51514;52.206;5.114;2023-03-20T07:03:22;101925.06;;;8.21;88.43
64886;BME280;51514;52.206;5.114;2023-03-20T07:05:48;101921.50;;;8.21;88.97
64886;BME280;51514;52.206;5.114;2023-03-20T07:08:13;101918.69;;;8.22;88.82
64886;BME280;51514;52.206;5.114;2023-03-20T07:10:39;101924.19;;;8.21;88.62
64886;BME280;51514;52.206;5.114;2023-03-20T07:13:04;101918.69;;;8.22;88.62
64886;BME280;51514;52.206;5.114;2023-03-20T07:15:30;101928.47;;;8.23;88.46
64886;BME280;51514;52.206;5.114;2023-03-20T07:17:56;101923.09;;;8.23;88.86
64886;BME280;51514;52.206;5.114;2023-03-20T07:20:21;101924.31;;;8.19;89.34
64886;BME280;51514;52.206;5.114;2023-03-20T07:22:47;101930.66;;;8.18;89.25
64886;BME280;51514;52.206;5.114;2023-03-20T07:25:13;101933.13;;;8.21;89.01
64886;BME280;51514;52.206;5.114;2023-03-20T07:27:38;101934.81;;;8.22;88.74
64886;BME280;51514;52.206;5.114;2023-03-20T07:30:04;101932.00;;;8.24;88.37
64886;BME280;51514;52.206;5.114;2023-03-20T07:32:30;101933.72;;;8.25;88.66
64886;BME280;51514;52.206;5.114;2023-03-20T07:34:56;101934.34;;;8.28;88.00
64886;BME280;51514;52.206;5.114;2023-03-20T07:37:21;101927.03;;;8.30;88.24
64886;BME280;51514;52.206;5.114;2023-03-20T07:39:47;101934.34;;;8.28;88.42
64886;BME280;51514;52.206;5.114;2023-03-20T07:42:12;101937.44;;;8.35;88.39
64886;BME280;51514;52.206;5.114;2023-03-20T07:44:38;101931.63;;;8.41;88.14
64886;BME280;51514;52.206;5.114;2023-03-20T07:47:03;101932.72;;;8.38;88.02
64886;BME280;51514;52.206;5.114;2023-03-20T07:49:30;101927.09;;;8.41;88.10
64886;BME280;51514;52.206;5.114;2023-03-20T07:51:55;101937.47;;;8.46;87.35
64886;BME280;51514;52.206;5.114;2023-03-20T07:54:21;101932.97;;;8.47;87.09
64886;BME280;51514;52.206;5.114;2023-03-20T07:56:46;101938.84;;;8.52;87.06
64886;BME280;51514;52.206;5.114;2023-03-20T07:59:12;101931.53;;;8.54;87.12
64886;BME280;51514;52.206;5.114;2023-03-20T08:01:38;101929.56;;;8.56;86.46
64886;BME280;51514;52.206;5.114;2023-03-20T08:04:03;101937.38;;;8.59;86.82
64886;BME280;51514;52.206;5.114;2023-03-20T08:06:29;101928.97;;;8.63;86.43
64886;BME280;51514;52.206;5.114;2023-03-20T08:08:55;101935.69;;;8.69;86.50
64886;BME280;51514;52.206;5.114;2023-03-20T08:11:20;101928.25;;;8.72;85.76
64886;BME280;51514;52.206;5.114;2023-03-20T08:13:45;101933.88;;;8.69;86.27
64886;BME280;51514;52.206;5.114;2023-03-20T08:16:11;101931.81;;;8.73;85.75
64886;BME280;51514;52.206;5.114;2023-03-20T08:18:36;101930.56;;;8.77;85.63
64886;BME280;51514;52.206;5.114;2023-03-20T08:21:03;101934.00;;;8.79;85.54
64886;BME280;51514;52.206;5.114;2023-03-20T08:23:28;101930.84;;;8.85;85.27
64886;BME280;51514;52.206;5.114;2023-03-20T08:25:53;101934.25;;;8.87;84.96
64886;BME280;51514;52.206;5.114;2023-03-20T08:28:19;101932.06;;;8.92;84.90
64886;BME280;51514;52.206;5.114;2023-03-20T08:30:45;101936.59;;;8.92;85.02
64886;BME280;51514;52.206;5.114;2023-03-20T08:33:11;101941.09;;;8.91;84.90
64886;BME280;51514;52.206;5.114;2023-03-20T08:35:36;101934.88;;;8.91;85.91
64886;BME280;51514;52.206;5.114;2023-03-20T08:38:02;101936.47;;;8.93;86.29
64886;BME280;51514;52.206;5.114;2023-03-20T08:40:28;101943.56;;;8.94;86.77
64886;BME280;51514;52.206;5.114;2023-03-20T08:42:53;101939.16;;;8.93;86.93
64886;BME280;51514;52.206;5.114;2023-03-20T08:45:19;101936.47;;;8.93;88.60
64886;BME280;51514;52.206;5.114;2023-03-20T08:47:47;101940.13;;;8.92;88.78
64886;BME280;51514;52.206;5.114;2023-03-20T08:50:14;101941.09;;;8.91;89.24
64886;BME280;51514;52.206;5.114;2023-03-20T08:52:40;101935.25;;;8.97;90.08
64886;BME280;51514;52.206;5.114;2023-03-20T08:55:09;101944.16;;;8.98;89.33
64886;BME280;51514;52.206;5.114;2023-03-20T08:57:35;101937.94;;;8.97;89.82
64886;BME280;51514;52.206;5.114;2023-03-20T09:00:03;101930.84;;;8.96;90.59
64886;BME280;51514;52.206;5.114;2023-03-20T09:02:28;101936.94;;;8.98;90.18
64886;BME280;51514;52.206;5.114;2023-03-20T09:04:54;101939.50;;;9.00;90.06
64886;BME280;51514;52.206;5.114;2023-03-20T09:07:19;101941.22;;;9.01;90.43
64886;BME280;51514;52.206;5.114;2023-03-20T09:09:46;101939.63;;;8.98;91.23
64886;BME280;51514;52.206;5.114;2023-03-20T09:12:11;101940.25;;;9.02;91.68
64886;BME280;51514;52.206;5.114;2023-03-20T09:14:36;101939.41;;;9.01;90.97
64886;BME280;51514;52.206;5.114;2023-03-20T09:17:02;101938.06;;;9.07;91.29
64886;BME280;51514;52.206;5.114;2023-03-20T09:19:27;101939.91;;;9.06;90.15
64886;BME280;51514;52.206;5.114;2023-03-20T09:21:53;101932.06;;;9.03;91.71
64886;BME280;51514;52.206;5.114;2023-03-20T09:24:18;101936.22;;;9.07;91.95
64886;BME280;51514;52.206;5.114;2023-03-20T09:26:43;101932.81;;;9.17;91.55
64886;BME280;51514;52.206;5.114;2023-03-20T09:29:09;101928.88;;;9.21;93.54
64886;BME280;51514;52.206;5.114;2023-03-20T09:31:34;101934.88;;;9.24;92.32
64886;BME280;51514;52.206;5.114;2023-03-20T09:33:59;101923.25;;;9.24;92.80
64886;BME280;51514;52.206;5.114;2023-03-20T09:36:25;101930.59;;;9.22;92.29
64886;BME280;51514;52.206;5.114;2023-03-20T09:38:50;101925.81;;;9.25;92.73
64886;BME280;51514;52.206;5.114;2023-03-20T09:41:21;101931.19;;;9.25;92.00
64886;BME280;51514;52.206;5.114;2023-03-20T09:44:09;101924.34;;;9.21;92.84
64886;BME280;51514;52.206;5.114;2023-03-20T09:52:25;101926.66;;;9.48;91.96
64886;BME280;51514;52.206;5.114;2023-03-20T09:54:56;101928.09;;;9.52;92.67
64886;BME280;51514;52.206;5.114;2023-03-20T09:57:28;101922.13;;;9.48;91.99
64886;BME280;51514;52.206;5.114;2023-03-20T09:59:56;101926.66;;;9.48;91.78
64886;BME280;51514;52.206;5.114;2023-03-20T10:02:38;101928.59;;;9.46;91.91
64886;BME280;51514;52.206;5.114;2023-03-20T10:05:23;101934.72;;;9.48;92.76
64886;BME280;51514;52.206;5.114;2023-03-20T10:07:50;101938.16;;;9.50;92.27
64886;BME280;51514;52.206;5.114;2023-03-20T10:10:16;101932.78;;;9.50;91.86
64886;BME280;51514;52.206;5.114;2023-03-20T10:12:56;101929.81;;;9.53;92.03
64886;BME280;51514;52.206;5.114;2023-03-20T10:15:40;101930.28;;;9.58;91.84
64886;BME280;51514;52.206;5.114;2023-03-20T10:18:22;101930.19;;;9.60;92.84
64886;BME280;51514;52.206;5.114;2023-03-20T10:21:09;101921.13;;;9.61;92.23
64886;BME280;51514;52.206;5.114;2023-03-20T10:23:59;101929.28;;;9.70;93.83
64886;BME280;51514;52.206;5.114;2023-03-20T10:26:27;101917.00;;;9.77;92.93
64886;BME280;51514;52.206;5.114;2023-03-20T10:29:01;101910.78;;;9.77;90.74
64886;BME280;51514;52.206;5.114;2023-03-20T10:31:33;101929.03;;;9.73;90.92
64886;BME280;51514;52.206;5.114;2023-03-20T10:34:29;101923.69;;;9.62;90.86
64886;BME280;51514;52.206;5.114;2023-03-20T10:42:40;101920.25;;;9.60;92.52
64886;BME280;51514;52.206;5.114;2023-03-20T10:47:52;101908.88;;;9.57;93.95
64886;BME280;51514;52.206;5.114;2023-03-20T10:50:28;101909.97;;;9.54;92.87
64886;BME280;51514;52.206;5.114;2023-03-20T10:52:56;101908.16;;;9.55;94.00
64886;BME280;51514;52.206;5.114;2023-03-20T10:55:36;101908.25;;;9.53;94.63
64886;BME280;51514;52.206;5.114;2023-03-20T10:58:20;101906.31;;;9.55;94.41
64886;BME280;51514;52.206;5.114;2023-03-20T11:00:46;101912.19;;;9.60;94.45
64886;BME280;51514;52.206;5.114;2023-03-20T11:03:20;101912.63;;;9.65;94.09
64886;BME280;51514;52.206;5.114;2023-03-20T11:05:52;101906.78;;;9.60;93.82
64886;BME280;51514;52.206;5.114;2023-03-20T11:08:22;101913.03;;;9.61;94.31
64886;BME280;51514;52.206;5.114;2023-03-20T11:10:58;101902.97;;;9.63;94.19
64886;BME280;51514;52.206;5.114;2023-03-20T11:13:31;101900.03;;;9.66;94.41
64886;BME280;51514;52.206;5.114;2023-03-20T11:16:07;101892.56;;;9.69;93.86
64886;BME280;51514;52.206;5.114;2023-03-20T11:18:33;101887.66;;;9.63;93.12
64886;BME280;51514;52.206;5.114;2023-03-20T11:21:00;101884.84;;;9.65;93.64
64886;BME280;51514;52.206;5.114;2023-03-20T11:23:29;101890.00;;;9.68;94.83
64886;BME280;51514;52.206;5.114;2023-03-20T11:26:01;101883.16;;;9.64;94.96
64886;BME280;51514;52.206;5.114;2023-03-20T11:28:33;101879.47;;;9.65;95.49
64886;BME280;51514;52.206;5.114;2023-03-20T11:31:06;101877.38;;;9.68;95.11
64886;BME280;51514;52.206;5.114;2023-03-20T11:33:37;101875.56;;;9.69;94.98
64886;BME280;51514;52.206;5.114;2023-03-20T11:36:10;101879.31;;;9.77;95.38
64886;BME280;51514;52.206;5.114;2023-03-20T11:38:42;101866.31;;;9.82;95.78
64886;BME280;51514;52.206;5.114;2023-03-20T11:41:26;101870.56;;;9.85;96.09
64886;BME280;51514;52.206;5.114;2023-03-20T11:43:52;101881.09;;;9.88;96.08
64886;BME280;51514;52.206;5.114;2023-03-20T11:46:19;101878.66;;;9.85;95.57
64886;BME280;51514;52.206;5.114;2023-03-20T11:48:47;101880.03;;;9.79;95.50
64886;BME280;51514;52.206;5.114;2023-03-20T11:51:25;101883.84;;;9.77;95.11
64886;BME280;51514;52.206;5.114;2023-03-20T11:54:00;101881.28;;;9.75;95.55
64886;BME280;51514;52.206;5.114;2023-03-20T11:56:29;101877.59;;;9.76;96.41
64886;BME280;51514;52.206;5.114;2023-03-20T11:59:12;101881.16;;;9.77;96.87
64886;BME280;51514;52.206;5.114;2023-03-20T12:01:45;101878.44;;;9.77;97.85
64886;BME280;51514;52.206;5.114;2023-03-20T12:04:18;101886.16;;;9.81;97.50
64886;BME280;51514;52.206;5.114;2023-03-20T12:07:16;101877.34;;;9.79;98.03
64886;BME280;51514;52.206;5.114;2023-03-20T12:09:51;101878.84;;;9.72;98.06
64886;BME280;51514;52.206;5.114;2023-03-20T12:15:19;101875.88;;;9.75;98.66
64886;BME280;51514;52.206;5.114;2023-03-20T12:17:55;101880.81;;;9.70;98.86
64886;BME280;51514;52.206;5.114;2023-03-20T12:22:58;101877.88;;;9.73;100.00
64886;BME280;51514;52.206;5.114;2023-03-20T12:25:27;101871.97;;;9.79;100.00
64886;BME280;51514;52.206;5.114;2023-03-20T12:28:19;101872.50;;;9.73;100.00
64886;BME280;51514;52.206;5.114;2023-03-20T12:31:02;101872.22;;;9.76;100.00
64886;BME280;51514;52.206;5.114;2023-03-20T12:33:47;101871.97;;;9.79;100.00
64886;BME280;51514;52.206;5.114;2023-03-20T12:36:34;101872.75;;;9.70;100.00
64886;BME280;51514;52.206;5.114;2023-03-20T12:39:03;101864.13;;;9.76;100.00
64886;BME280;51514;52.206;5.114;2023-03-20T12:41:45;101869.28;;;9.79;100.00
64886;BME280;51514;52.206;5.114;2023-03-20T12:44:28;101863.16;;;9.77;100.00
64886;BME280;51514;52.206;5.114;2023-03-20T12:47:01;101851.41;;;9.78;100.00
64886;BME280;51514;52.206;5.114;2023-03-20T12:55:01;101849.28;;;9.61;100.00
64886;BME280;51514;52.206;5.114;2023-03-20T12:57:46;101853.41;;;9.65;100.00
64886;BME280;51514;52.206;5.114;2023-03-20T13:00:27;101846.06;;;9.67;100.00
64886;BME280;51514;52.206;5.114;2023-03-20T13:06:16;101838.47;;;9.72;100.00
64886;BME280;51514;52.206;5.114;2023-03-20T13:15:10;101832.78;;;9.75;100.00
64886;BME280;51514;52.206;5.114;2023-03-20T13:18:23;101831.94;;;9.75;100.00
64886;BME280;51514;52.206;5.114;2023-03-20T13:20:46;101829.41;;;9.73;100.00
64886;BME280;51514;52.206;5.114;2023-03-20T13:23:30;101830.50;;;9.71;100.00
64886;BME280;51514;52.206;5.114;2023-03-20T13:33:50;101822.06;;;9.64;100.00
64886;BME280;51514;52.206;5.114;2023-03-20T13:39:15;101817.91;;;9.71;100.00
64886;BME280;51514;52.206;5.114;2023-03-20T13:41:43;101816.91;;;9.72;100.00
64886;BME280;51514;52.206;5.114;2023-03-20T13:44:10;101818.34;;;9.76;100.00
64886;BME280;51514;52.206;5.114;2023-03-20T13:49:13;101814.66;;;9.77;100.00
64886;BME280;51514;52.206;5.114;2023-03-20T13:51:49;101815.84;;;9.84;100.00
64886;BME280;51514;52.206;5.114;2023-03-20T14:04:45;101810.94;;;9.89;100.00
64886;BME280;51514;52.206;5.114;2023-03-20T14:07:37;101821.84;;;9.88;100.00
64886;BME280;51514;52.206;5.114;2023-03-20T14:12:52;101813.44;;;9.81;100.00
64886;BME280;51514;52.206;5.114;2023-03-20T14:15:19;101804.63;;;9.79;100.00
64886;BME280;51514;52.206;5.114;2023-03-20T14:17:46;101819.19;;;9.77;100.00
64886;BME280;51514;52.206;5.114;2023-03-20T14:20:25;101810.25;;;9.76;100.00
64886;BME280;51514;52.206;5.114;2023-03-20T14:22:52;101814.53;;;9.79;100.00
64886;BME280;51514;52.206;5.114;2023-03-20T14:25:19;101814.41;;;9.80;100.00
64886;BME280;51514;52.206;5.114;2023-03-20T14:30:49;101813.31;;;9.83;100.00
64886;BME280;51514;52.206;5.114;2023-03-20T14:35:44;101804.63;;;9.79;100.00
64886;BME280;51514;52.206;5.114;2023-03-20T14:43:39;101804.88;;;9.76;100.00
64886;BME280;51514;52.206;5.114;2023-03-20T14:46:24;101811.00;;;9.78;100.00
64886;BME280;51514;52.206;5.114;2023-03-20T14:48:54;101807.31;;;9.79;100.00
64886;BME280;51514;52.206;5.114;2023-03-20T14:51:30;101793.59;;;9.82;100.00
64886;BME280;51514;52.206;5.114;2023-03-20T14:56:46;101797.16;;;9.83;100.00
64886;BME280;51514;52.206;5.114;2023-03-20T14:59:13;101792.34;;;9.86;100.00